sensor_id;sensor_type;location;lat;lon;timestamp;pressure;altitude;pressure_sealevel;temperature;humidity
83488;BME280;73424;49.994;8.184;2023-11-19T00:00:15;99742.00;;;8.31;97.29
83488;BME280;73424;49.994;8.184;2023-11-19T00:02:41;99693.78;;;8.13;96.32
83488;BME280;73424;49.994;8.184;2023-11-19T00:05:07;99768.25;;;8.62;96.92
83488;BME280;73424;49.994;8.184;2023-11-19T00:07:39;99786.19;;;8.60;97.35
83488;BME280;73424;49.994;8.184;2023-11-19T00:10:12;99713.44;;;8.18;96.45
83488;BME280;73424;49.994;8.184;2023-11-19T00:12:40;99792.03;;;8.70;96.78
83488;BME280;73424;49.994;8.184;2023-11-19T00:15:06;99772.28;;;8.58;96.43
83488;BME280;73424;49.994;8.184;2023-11-19T00:17:34;99809.66;;;8.77;95.87
83488;BME280;73424;49.994;8.184;2023-11-19T00:19:59;99806.16;;;8.70;96.34
83488;BME280;73424;49.994;8.184;2023-11-19T00:22:24;99753.38;;;8.46;95.67
83488;BME280;73424;49.994;8.184;2023-11-19T00:24:51;99797.19;;;8.78;96.60
83488;BME280;73424;49.994;8.184;2023-11-19T00:27:16;99781.50;;;8.83;95.92
83488;BME280;73424;49.994;8.184;2023-11-19T00:29:41;99781.94;;;8.87;95.84
83488;BME280;73424;49.994;8.184;2023-11-19T00:32:07;99796.00;;;8.81;96.15
83488;BME280;73424;49.994;8.184;2023-11-19T00:34:32;99772.00;;;8.74;96.39
83488;BME280;73424;49.994;8.184;2023-11-19T00:36:58;99783.72;;;8.80;96.49
83488;BME280;73424;49.994;8.184;2023-11-19T00:39:23;99745.38;;;8.67;96.32
83488;BME280;73424;49.994;8.184;2023-11-19T00:41:48;99771.25;;;8.80;96.81
83488;BME280;73424;49.994;8.184;2023-11-19T00:44:14;99764.72;;;8.83;96.30
83488;BME280;73424;49.994;8.184;2023-11-19T00:46:39;99749.91;;;8.73;95.76
83488;BME280;73424;49.994;8.184;2023-11-19T00:49:05;99743.38;;;8.76;95.50
83488;BME280;73424;49.994;8.184;2023-11-19T00:51:30;99768.88;;;8.92;96.57
83488;BME280;73424;49.994;8.184;2023-11-19T00:53:56;99761.53;;;9.00;95.72
83488;BME280;73424;49.994;8.184;2023-11-19T00:56:22;99740.91;;;8.74;96.12
83488;BME280;73424;49.994;8.184;2023-11-19T00:58:48;99735.94;;;8.93;96.67
83488;BME280;73424;49.994;8.184;2023-11-19T01:01:13;99735.34;;;8.97;96.45
83488;BME280;73424;49.994;8.184;2023-11-19T01:03:38;99743.72;;;8.94;96.85
83488;BME280;73424;49.994;8.184;2023-11-19T01:06:04;99736.19;;;9.04;96.40
83488;BME280;73424;49.994;8.184;2023-11-19T01:08:29;99728.78;;;9.00;96.36
83488;BME280;73424;49.994;8.184;2023-11-19T01:10:55;99706.84;;;8.91;96.54
83488;BME280;73424;49.994;8.184;2023-11-19T01:13:20;99706.63;;;8.86;96.38
83488;BME280;73424;49.994;8.184;2023-11-19T01:15:45;99717.94;;;8.95;96.77
83488;BME280;73424;49.994;8.184;2023-11-19T01:18:12;99684.38;;;8.66;96.89
83488;BME280;73424;49.994;8.184;2023-11-19T01:20:38;99715.81;;;8.84;96.58
83488;BME280;73424;49.994;8.184;2023-11-19T01:23:03;99682.13;;;8.63;96.37
83488;BME280;73424;49.994;8.184;2023-11-19T01:25:29;99708.47;;;8.86;96.66
83488;BME280;73424;49.994;8.184;2023-11-19T01:27:54;99687.13;;;8.79;96.21
83488;BME280;73424;49.994;8.184;2023-11-19T01:30:22;99714.41;;;8.88;97.24
83488;BME280;73424;49.994;8.184;2023-11-19T01:32:47;99720.53;;;8.88;97.38
83488;BME280;73424;49.994;8.184;2023-11-19T01:35:12;99709.13;;;8.94;96.30
83488;BME280;73424;49.994;8.184;2023-11-19T01:37:37;99731.72;;;9.05;96.63
83488;BME280;73424;49.994;8.184;2023-11-19T01:40:03;99751.16;;;9.12;96.57
83488;BME280;73424;49.994;8.184;2023-11-19T01:42:30;99714.91;;;9.04;96.09
83488;BME280;73424;49.994;8.184;2023-11-19T01:44:58;99701.34;;;8.93;96.52
83488;BME280;73424;49.994;8.184;2023-11-19T01:47:25;99629.97;;;8.68;95.93
83488;BME280;73424;49.994;8.184;2023-11-19T01:49:51;99677.44;;;9.06;96.09
83488;BME280;73424;49.994;8.184;2023-11-19T01:52:17;99680.78;;;9.21;95.76
83488;BME280;73424;49.994;8.184;2023-11-19T01:54:43;99641.56;;;8.89;96.12
83488;BME280;73424;49.994;8.184;2023-11-19T01:57:09;99651.47;;;9.01;95.39
83488;BME280;73424;49.994;8.184;2023-11-19T01:59:34;99692.91;;;9.30;95.78
83488;BME280;73424;49.994;8.184;2023-11-19T02:02:00;99637.53;;;9.06;95.46
83488;BME280;73424;49.994;8.184;2023-11-19T02:04:25;99658.91;;;9.25;95.51
83488;BME280;73424;49.994;8.184;2023-11-19T02:06:51;99654.19;;;9.21;95.47
83488;BME280;73424;49.994;8.184;2023-11-19T02:09:19;99681.06;;;9.33;95.97
83488;BME280;73424;49.994;8.184;2023-11-19T02:11:45;99652.97;;;9.17;95.96
83488;BME280;73424;49.994;8.184;2023-11-19T02:14:13;99612.13;;;8.97;95.66
83488;BME280;73424;49.994;8.184;2023-11-19T02:16:38;99614.19;;;8.95;95.95
83488;BME280;73424;49.994;8.184;2023-11-19T02:19:03;99645.31;;;9.01;96.19
83488;BME280;73424;49.994;8.184;2023-11-19T02:21:31;99660.16;;;9.29;95.53
83488;BME280;73424;49.994;8.184;2023-11-19T02:23:56;99677.78;;;9.37;96.19
83488;BME280;73424;49.994;8.184;2023-11-19T02:26:30;99634.72;;;9.14;95.93
83488;BME280;73424;49.994;8.184;2023-11-19T02:28:58;99658.50;;;9.22;95.98
83488;BME280;73424;49.994;8.184;2023-11-19T02:31:24;99631.03;;;9.15;96.06
83488;BME280;73424;49.994;8.184;2023-11-19T02:33:49;99642.56;;;9.28;96.10
83488;BME280;73424;49.994;8.184;2023-11-19T02:36:15;99634.75;;;9.27;95.80
83488;BME280;73424;49.994;8.184;2023-11-19T02:38:40;99650.34;;;9.37;96.06
83488;BME280;73424;49.994;8.184;2023-11-19T02:41:08;99667.19;;;9.44;95.97
83488;BME280;73424;49.994;8.184;2023-11-19T02:43:35;99639.53;;;9.38;96.28
83488;BME280;73424;49.994;8.184;2023-11-19T02:46:05;99649.56;;;9.49;96.02
83488;BME280;73424;49.994;8.184;2023-11-19T02:48:34;99608.97;;;9.34;95.55
83488;BME280;73424;49.994;8.184;2023-11-19T02:51:03;99633.00;;;9.60;95.76
83488;BME280;73424;49.994;8.184;2023-11-19T02:53:30;99631.13;;;9.54;95.56
83488;BME280;73424;49.994;8.184;2023-11-19T02:55:55;99654.31;;;9.54;95.78
83488;BME280;73424;49.994;8.184;2023-11-19T02:58:27;99633.00;;;9.47;95.91
83488;BME280;73424;49.994;8.184;2023-11-19T03:00:53;99593.84;;;9.35;95.52
83488;BME280;73424;49.994;8.184;2023-11-19T03:03:34;99606.53;;;9.46;96.15
83488;BME280;73424;49.994;8.184;2023-11-19T03:06:07;99611.47;;;9.55;95.87
83488;BME280;73424;49.994;8.184;2023-11-19T03:08:34;99628.47;;;9.54;96.10
83488;BME280;73424;49.994;8.184;2023-11-19T03:11:00;99577.63;;;9.23;96.34
83488;BME280;73424;49.994;8.184;2023-11-19T03:13:25;99606.38;;;9.47;96.71
83488;BME280;73424;49.994;8.184;2023-11-19T03:15:52;99623.97;;;9.55;96.63
83488;BME280;73424;49.994;8.184;2023-11-19T03:18:19;99618.06;;;9.59;96.83
83488;BME280;73424;49.994;8.184;2023-11-19T03:20:46;99617.22;;;9.59;96.53
83488;BME280;73424;49.994;8.184;2023-11-19T03:23:11;99621.13;;;9.63;97.44
83488;BME280;73424;49.994;8.184;2023-11-19T03:25:36;99601.44;;;9.44;97.69
83488;BME280;73424;49.994;8.184;2023-11-19T03:28:03;99604.91;;;9.51;97.73
83488;BME280;73424;49.994;8.184;2023-11-19T03:30:29;99617.66;;;9.62;97.88
83488;BME280;73424;49.994;8.184;2023-11-19T03:32:55;99607.81;;;9.56;97.35
83488;BME280;73424;49.994;8.184;2023-11-19T03:35:21;99599.59;;;9.45;97.43
83488;BME280;73424;49.994;8.184;2023-11-19T03:37:47;99612.31;;;9.56;97.73
83488;BME280;73424;49.994;8.184;2023-11-19T03:40:12;99586.69;;;9.42;97.67
83488;BME280;73424;49.994;8.184;2023-11-19T03:42:37;99590.56;;;9.46;98.17
83488;BME280;73424;49.994;8.184;2023-11-19T03:45:07;99594.47;;;9.50;98.08
83488;BME280;73424;49.994;8.184;2023-11-19T03:47:36;99608.84;;;9.62;97.89
83488;BME280;73424;49.994;8.184;2023-11-19T03:50:02;99578.31;;;9.45;98.36
83488;BME280;73424;49.994;8.184;2023-11-19T03:52:28;99605.75;;;9.58;97.68
83488;BME280;73424;49.994;8.184;2023-11-19T03:54:56;99600.63;;;9.63;97.41
83488;BME280;73424;49.994;8.184;2023-11-19T03:57:22;99583.22;;;9.61;97.54
83488;BME280;73424;49.994;8.184;2023-11-19T03:59:47;99627.50;;;9.88;97.31
83488;BME280;73424;49.994;8.184;2023-11-19T04:02:13;99582.63;;;9.65;96.92
83488;BME280;73424;49.994;8.184;2023-11-19T04:04:38;99615.41;;;9.85;97.33
83488;BME280;73424;49.994;8.184;2023-11-19T04:07:04;99585.50;;;9.70;97.57
83488;BME280;73424;49.994;8.184;2023-11-19T04:09:30;99552.88;;;9.42;97.53
83488;BME280;73424;49.994;8.184;2023-11-19T04:11:56;99584.47;;;9.71;97.93
83488;BME280;73424;49.994;8.184;2023-11-19T04:14:22;99603.13;;;9.84;97.96
83488;BME280;73424;49.994;8.184;2023-11-19T04:16:47;99600.47;;;9.78;97.68
83488;BME280;73424;49.994;8.184;2023-11-19T04:19:12;99579.94;;;9.59;98.19
83488;BME280;73424;49.994;8.184;2023-11-19T04:21:40;99607.00;;;9.89;97.78
83488;BME280;73424;49.994;8.184;2023-11-19T04:24:09;99606.00;;;9.90;97.88
83488;BME280;73424;49.994;8.184;2023-11-19T04:26:40;99561.09;;;9.60;97.94
83488;BME280;73424;49.994;8.184;2023-11-19T04:29:06;99611.53;;;9.95;98.05
83488;BME280;73424;49.994;8.184;2023-11-19T04:31:33;99572.38;;;9.75;97.96
83488;BME280;73424;49.994;8.184;2023-11-19T04:33:58;99573.00;;;9.77;98.35
83488;BME280;73424;49.994;8.184;2023-11-19T04:36:25;99569.50;;;9.70;98.72
83488;BME280;73424;49.994;8.184;2023-11-19T04:38:50;99554.34;;;9.64;98.81
83488;BME280;73424;49.994;8.184;2023-11-19T04:41:16;99570.13;;;9.85;98.56
83488;BME280;73424;49.994;8.184;2023-11-19T04:43:41;99559.47;;;9.72;99.13
83488;BME280;73424;49.994;8.184;2023-11-19T04:46:06;99579.94;;;9.78;99.58
83488;BME280;73424;49.994;8.184;2023-11-19T04:48:32;99548.41;;;9.62;99.52
83488;BME280;73424;49.994;8.184;2023-11-19T04:50:57;99562.75;;;9.74;99.34
83488;BME280;73424;49.994;8.184;2023-11-19T04:53:23;99563.97;;;9.78;99.21
83488;BME280;73424;49.994;8.184;2023-11-19T04:55:48;99590.22;;;9.95;99.38
83488;BME280;73424;49.994;8.184;2023-11-19T04:58:13;99531.38;;;9.63;98.93
83488;BME280;73424;49.994;8.184;2023-11-19T05:00:39;99578.72;;;9.94;99.06
83488;BME280;73424;49.994;8.184;2023-11-19T05:03:04;99575.47;;;9.99;98.33
83488;BME280;73424;49.994;8.184;2023-11-19T05:05:29;99524.44;;;9.62;98.21
83488;BME280;73424;49.994;8.184;2023-11-19T05:07:54;99570.13;;;9.79;98.43
83488;BME280;73424;49.994;8.184;2023-11-19T05:10:20;99534.25;;;9.49;98.83
83488;BME280;73424;49.994;8.184;2023-11-19T05:12:45;99601.69;;;9.95;98.84
83488;BME280;73424;49.994;8.184;2023-11-19T05:15:11;99578.13;;;9.85;98.82
83488;BME280;73424;49.994;8.184;2023-11-19T05:17:37;99584.88;;;9.88;98.01
83488;BME280;73424;49.994;8.184;2023-11-19T05:20:02;99594.72;;;9.94;98.41
83488;BME280;73424;49.994;8.184;2023-11-19T05:22:28;99574.22;;;9.81;97.38
83488;BME280;73424;49.994;8.184;2023-11-19T05:24:53;99589.81;;;9.84;97.20
83488;BME280;73424;49.994;8.184;2023-11-19T05:27:19;99566.84;;;9.70;97.42
83488;BME280;73424;49.994;8.184;2023-11-19T05:29:44;99564.97;;;9.51;99.00
83488;BME280;73424;49.994;8.184;2023-11-19T05:32:10;99546.34;;;9.45;98.54
83488;BME280;73424;49.994;8.184;2023-11-19T05:34:35;99549.63;;;9.53;98.84
83488;BME280;73424;49.994;8.184;2023-11-19T05:37:01;99547.78;;;9.47;98.70
83488;BME280;73424;49.994;8.184;2023-11-19T05:39:27;99556.59;;;9.41;98.52
83488;BME280;73424;49.994;8.184;2023-11-19T05:41:53;99535.50;;;9.46;97.39
83488;BME280;73424;49.994;8.184;2023-11-19T05:44:18;99569.72;;;9.62;97.51
83488;BME280;73424;49.994;8.184;2023-11-19T05:46:44;99572.56;;;9.54;97.94
83488;BME280;73424;49.994;8.184;2023-11-19T05:49:10;99573.78;;;9.45;97.72
83488;BME280;73424;49.994;8.184;2023-11-19T05:51:38;99560.03;;;9.28;98.40
83488;BME280;73424;49.994;8.184;2023-11-19T05:54:09;99600.22;;;9.53;98.22
83488;BME280;73424;49.994;8.184;2023-11-19T05:56:35;99564.78;;;9.46;97.99
83488;BME280;73424;49.994;8.184;2023-11-19T05:59:01;99598.78;;;9.64;98.16
83488;BME280;73424;49.994;8.184;2023-11-19T06:01:28;99558.63;;;9.33;98.45
83488;BME280;73424;49.994;8.184;2023-11-19T06:03:54;99559.81;;;9.30;98.44
83488;BME280;73424;49.994;8.184;2023-11-19T06:06:19;99596.94;;;9.51;98.99
83488;BME280;73424;49.994;8.184;2023-11-19T06:08:45;99599.59;;;9.51;98.96
83488;BME280;73424;49.994;8.184;2023-11-19T06:11:10;99595.91;;;9.52;99.25
83488;BME280;73424;49.994;8.184;2023-11-19T06:13:43;99577.44;;;9.31;98.69
83488;BME280;73424;49.994;8.184;2023-11-19T06:16:09;99562.88;;;9.20;99.33
83488;BME280;73424;49.994;8.184;2023-11-19T06:18:36;99601.41;;;9.38;99.06
83488;BME280;73424;49.994;8.184;2023-11-19T06:21:01;99609.63;;;9.43;99.49
83488;BME280;73424;49.994;8.184;2023-11-19T06:23:27;99613.94;;;9.44;99.35
83488;BME280;73424;49.994;8.184;2023-11-19T06:25:52;99607.19;;;9.48;98.98
83488;BME280;73424;49.994;8.184;2023-11-19T06:28:17;99620.53;;;9.74;98.33
83488;BME280;73424;49.994;8.184;2023-11-19T06:30:42;99598.19;;;9.55;98.20
83488;BME280;73424;49.994;8.184;2023-11-19T06:33:08;99615.00;;;9.62;98.04
83488;BME280;73424;49.994;8.184;2023-11-19T06:35:34;99580.13;;;9.38;98.52
83488;BME280;73424;49.994;8.184;2023-11-19T06:38:02;99601.63;;;9.43;98.68
83488;BME280;73424;49.994;8.184;2023-11-19T06:40:29;99611.44;;;9.42;99.13
83488;BME280;73424;49.994;8.184;2023-11-19T06:42:55;99622.53;;;9.52;99.11
83488;BME280;73424;49.994;8.184;2023-11-19T06:45:20;99613.94;;;9.50;99.30
83488;BME280;73424;49.994;8.184;2023-11-19T06:47:45;99618.03;;;9.46;99.14
83488;BME280;73424;49.994;8.184;2023-11-19T06:50:10;99607.34;;;9.40;98.81
83488;BME280;73424;49.994;8.184;2023-11-19T06:52:37;99554.91;;;9.14;98.75
83488;BME280;73424;49.994;8.184;2023-11-19T06:55:03;99580.31;;;9.23;99.09
83488;BME280;73424;49.994;8.184;2023-11-19T06:57:28;99589.94;;;9.37;99.26
83488;BME280;73424;49.994;8.184;2023-11-19T06:59:54;99609.03;;;9.67;98.62
83488;BME280;73424;49.994;8.184;2023-11-19T07:02:19;99601.69;;;9.82;97.57
83488;BME280;73424;49.994;8.184;2023-11-19T07:04:45;99602.09;;;9.59;97.63
83488;BME280;73424;49.994;8.184;2023-11-19T07:07:10;99618.47;;;9.76;97.71
83488;BME280;73424;49.994;8.184;2023-11-19T07:09:35;99575.03;;;9.62;97.18
83488;BME280;73424;49.994;8.184;2023-11-19T07:12:02;99578.28;;;9.38;98.05
83488;BME280;73424;49.994;8.184;2023-11-19T07:14:29;99620.06;;;9.44;98.95
83488;BME280;73424;49.994;8.184;2023-11-19T07:16:55;99594.25;;;9.38;98.72
83488;BME280;73424;49.994;8.184;2023-11-19T07:19:21;99621.72;;;9.58;98.82
83488;BME280;73424;49.994;8.184;2023-11-19T07:21:46;99628.72;;;9.59;98.92
83488;BME280;73424;49.994;8.184;2023-11-19T07:24:11;99565.94;;;9.24;98.63
83488;BME280;73424;49.994;8.184;2023-11-19T07:26:47;99615.19;;;9.61;98.32
83488;BME280;73424;49.994;8.184;2023-11-19T07:29:15;99591.19;;;9.41;98.69
83488;BME280;73424;49.994;8.184;2023-11-19T07:31:44;99607.97;;;9.48;98.87
83488;BME280;73424;49.994;8.184;2023-11-19T07:34:10;99622.72;;;9.38;99.25
83488;BME280;73424;49.994;8.184;2023-11-19T07:36:36;99604.91;;;9.38;99.11
83488;BME280;73424;49.994;8.184;2023-11-19T07:39:03;99611.09;;;9.58;97.76
83488;BME280;73424;49.994;8.184;2023-11-19T07:41:30;99579.91;;;9.33;98.49
83488;BME280;73424;49.994;8.184;2023-11-19T07:43:55;99600.78;;;9.29;98.48
83488;BME280;73424;49.994;8.184;2023-11-19T07:46:20;99591.13;;;9.21;98.59
83488;BME280;73424;49.994;8.184;2023-11-19T07:48:46;99587.22;;;9.11;98.99
83488;BME280;73424;49.994;8.184;2023-11-19T07:51:14;99628.31;;;9.69;98.81
83488;BME280;73424;49.994;8.184;2023-11-19T07:53:40;99610.66;;;9.55;98.50
83488;BME280;73424;49.994;8.184;2023-11-19T07:56:06;99635.88;;;9.78;98.47
83488;BME280;73424;49.994;8.184;2023-11-19T07:58:32;99624.44;;;9.84;98.64
83488;BME280;73424;49.994;8.184;2023-11-19T08:00:58;99599.22;;;9.80;98.98
83488;BME280;73424;49.994;8.184;2023-11-19T08:03:23;99627.72;;;9.87;98.24
83488;BME280;73424;49.994;8.184;2023-11-19T08:05:48;99611.09;;;9.71;98.94
83488;BME280;73424;49.994;8.184;2023-11-19T08:08:14;99626.28;;;9.84;99.21
83488;BME280;73424;49.994;8.184;2023-11-19T08:10:40;99624.63;;;9.76;99.11
83488;BME280;73424;49.994;8.184;2023-11-19T08:13:05;99632.00;;;9.74;99.57
83488;BME280;73424;49.994;8.184;2023-11-19T08:15:31;99626.69;;;10.07;100.00
83488;BME280;73424;49.994;8.184;2023-11-19T08:17:56;99626.66;;;10.66;98.71
83488;BME280;73424;49.994;8.184;2023-11-19T08:20:22;99605.34;;;11.11;96.68
83488;BME280;73424;49.994;8.184;2023-11-19T08:22:47;99615.66;;;11.45;95.42
83488;BME280;73424;49.994;8.184;2023-11-19T08:25:12;99620.44;;;11.74;94.20
83488;BME280;73424;49.994;8.184;2023-11-19T08:27:38;99625.59;;;12.00;93.03
83488;BME280;73424;49.994;8.184;2023-11-19T08:30:04;99632.22;;;12.23;92.74
83488;BME280;73424;49.994;8.184;2023-11-19T08:32:31;99610.88;;;12.16;92.79
83488;BME280;73424;49.994;8.184;2023-11-19T08:34:56;99638.19;;;12.43;90.94
83488;BME280;73424;49.994;8.184;2023-11-19T08:37:22;99648.25;;;12.47;91.86
83488;BME280;73424;49.994;8.184;2023-11-19T08:39:48;99664.94;;;12.43;91.54
83488;BME280;73424;49.994;8.184;2023-11-19T08:42:13;99606.09;;;11.93;91.39
83488;BME280;73424;49.994;8.184;2023-11-19T08:44:38;99654.53;;;12.35;89.25
83488;BME280;73424;49.994;8.184;2023-11-19T08:47:04;99655.50;;;12.40;89.32
83488;BME280;73424;49.994;8.184;2023-11-19T08:49:29;99671.31;;;12.42;89.61
83488;BME280;73424;49.994;8.184;2023-11-19T08:51:55;99607.56;;;12.14;89.38
83488;BME280;73424;49.994;8.184;2023-11-19T08:54:20;99641.88;;;12.42;89.00
83488;BME280;73424;49.994;8.184;2023-11-19T08:56:46;99615.94;;;12.24;88.74
83488;BME280;73424;49.994;8.184;2023-11-19T08:59:12;99648.16;;;12.54;89.13
83488;BME280;73424;49.994;8.184;2023-11-19T09:01:37;99654.72;;;12.58;88.45
83488;BME280;73424;49.994;8.184;2023-11-19T09:04:02;99650.38;;;12.57;87.87
83488;BME280;73424;49.994;8.184;2023-11-19T09:06:28;99633.44;;;12.45;86.99
83488;BME280;73424;49.994;8.184;2023-11-19T09:08:53;99635.13;;;12.39;88.16
83488;BME280;73424;49.994;8.184;2023-11-19T09:11:18;99651.72;;;12.48;87.79
83488;BME280;73424;49.994;8.184;2023-11-19T09:13:44;99596.63;;;12.22;87.94
83488;BME280;73424;49.994;8.184;2023-11-19T09:16:12;99611.56;;;12.48;86.79
83488;BME280;73424;49.994;8.184;2023-11-19T09:18:37;99644.47;;;12.91;85.45
83488;BME280;73424;49.994;8.184;2023-11-19T09:21:02;99610.19;;;12.64;86.27
83488;BME280;73424;49.994;8.184;2023-11-19T09:23:28;99634.75;;;13.15;82.92
83488;BME280;73424;49.994;8.184;2023-11-19T09:25:55;99601.81;;;12.96;83.48
83488;BME280;73424;49.994;8.184;2023-11-19T09:28:21;99616.00;;;13.15;79.19
83488;BME280;73424;49.994;8.184;2023-11-19T09:30:46;99636.69;;;13.26;80.76
83488;BME280;73424;49.994;8.184;2023-11-19T09:33:12;99629.38;;;13.15;81.54
83488;BME280;73424;49.994;8.184;2023-11-19T09:35:39;99646.59;;;13.26;81.51
83488;BME280;73424;49.994;8.184;2023-11-19T09:38:04;99629.03;;;13.12;80.38
83488;BME280;73424;49.994;8.184;2023-11-19T09:40:30;99664.31;;;13.27;82.09
83488;BME280;73424;49.994;8.184;2023-11-19T09:42:56;99628.22;;;13.11;80.56
83488;BME280;73424;49.994;8.184;2023-11-19T09:45:26;99659.97;;;13.26;82.56
83488;BME280;73424;49.994;8.184;2023-11-19T09:47:52;99626.94;;;13.14;81.46
83488;BME280;73424;49.994;8.184;2023-11-19T09:50:19;99608.41;;;13.12;79.86
83488;BME280;73424;49.994;8.184;2023-11-19T09:52:45;99647.38;;;13.44;79.32
83488;BME280;73424;49.994;8.184;2023-11-19T09:55:11;99658.59;;;13.53;79.88
83488;BME280;73424;49.994;8.184;2023-11-19T09:57:38;99631.00;;;13.34;79.87
83488;BME280;73424;49.994;8.184;2023-11-19T10:00:05;99632.88;;;13.34;80.41
83488;BME280;73424;49.994;8.184;2023-11-19T10:02:33;99654.41;;;13.57;77.63
83488;BME280;73424;49.994;8.184;2023-11-19T10:05:11;99634.34;;;13.48;78.63
83488;BME280;73424;49.994;8.184;2023-11-19T10:07:38;99613.56;;;13.43;78.63
83488;BME280;73424;49.994;8.184;2023-11-19T10:10:04;99645.00;;;13.66;76.78
83488;BME280;73424;49.994;8.184;2023-11-19T10:12:30;99636.31;;;13.52;77.11
83488;BME280;73424;49.994;8.184;2023-11-19T10:14:57;99644.22;;;13.77;76.05
83488;BME280;73424;49.994;8.184;2023-11-19T10:17:36;99641.53;;;13.77;75.83
83488;BME280;73424;49.994;8.184;2023-11-19T10:20:01;99627.94;;;13.90;74.99
83488;BME280;73424;49.994;8.184;2023-11-19T10:22:28;99669.06;;;14.26;74.21
83488;BME280;73424;49.994;8.184;2023-11-19T10:24:53;99663.16;;;14.47;72.19
83488;BME280;73424;49.994;8.184;2023-11-19T10:27:19;99658.97;;;14.51;72.70
83488;BME280;73424;49.994;8.184;2023-11-19T10:29:45;99626.47;;;14.29;73.14
83488;BME280;73424;49.994;8.184;2023-11-19T10:32:12;99655.16;;;14.29;72.84
83488;BME280;73424;49.994;8.184;2023-11-19T10:34:37;99629.72;;;14.08;72.58
83488;BME280;73424;49.994;8.184;2023-11-19T10:37:04;99621.41;;;13.86;74.54
83488;BME280;73424;49.994;8.184;2023-11-19T10:39:52;99652.94;;;14.02;73.88
83488;BME280;73424;49.994;8.184;2023-11-19T10:42:21;99599.94;;;13.86;74.22
83488;BME280;73424;49.994;8.184;2023-11-19T10:44:46;99635.56;;;14.05;72.70
83488;BME280;73424;49.994;8.184;2023-11-19T10:47:14;99568.66;;;13.57;73.80
83488;BME280;73424;49.994;8.184;2023-11-19T10:49:39;99624.19;;;13.91;73.44
83488;BME280;73424;49.994;8.184;2023-11-19T10:52:08;99643.13;;;14.08;71.52
83488;BME280;73424;49.994;8.184;2023-11-19T10:54:34;99627.59;;;13.98;71.89
83488;BME280;73424;49.994;8.184;2023-11-19T10:57:01;99652.72;;;14.15;71.64
83488;BME280;73424;49.994;8.184;2023-11-19T10:59:31;99639.19;;;14.22;70.65
83488;BME280;73424;49.994;8.184;2023-11-19T11:02:03;99639.19;;;14.22;69.96
83488;BME280;73424;49.994;8.184;2023-11-19T11:04:31;99619.00;;;14.31;71.14
83488;BME280;73424;49.994;8.184;2023-11-19T11:06:59;99601.63;;;14.10;70.60
83488;BME280;73424;49.994;8.184;2023-11-19T11:09:32;99622.97;;;14.17;70.97
83488;BME280;73424;49.994;8.184;2023-11-19T11:11:58;99587.28;;;14.05;70.21
83488;BME280;73424;49.994;8.184;2023-11-19T11:14:24;99578.28;;;14.23;69.36
83488;BME280;73424;49.994;8.184;2023-11-19T11:16:51;99478.56;;;13.79;68.80
83488;BME280;73424;49.994;8.184;2023-11-19T11:19:17;99559.78;;;14.33;70.64
83488;BME280;73424;49.994;8.184;2023-11-19T11:21:49;99620.22;;;14.47;70.52
83488;BME280;73424;49.994;8.184;2023-11-19T11:27:55;99621.09;;;14.29;70.63
83488;BME280;73424;49.994;8.184;2023-11-19T11:33:11;99632.69;;;14.76;69.43
83488;BME280;73424;49.994;8.184;2023-11-19T11:38:17;99642.59;;;14.87;69.33
83488;BME280;73424;49.994;8.184;2023-11-19T11:41:15;99564.09;;;14.45;68.84
83488;BME280;73424;49.994;8.184;2023-11-19T11:49:00;99612.31;;;15.03;68.21
83488;BME280;73424;49.994;8.184;2023-11-19T11:57:07;99589.97;;;15.14;67.72
83488;BME280;73424;49.994;8.184;2023-11-19T11:59:43;99563.81;;;14.70;67.16
83488;BME280;73424;49.994;8.184;2023-11-19T12:02:09;99603.59;;;14.85;68.76
83488;BME280;73424;49.994;8.184;2023-11-19T12:04:35;99592.03;;;14.84;68.56
83488;BME280;73424;49.994;8.184;2023-11-19T12:07:21;99600.88;;;14.96;68.20
83488;BME280;73424;49.994;8.184;2023-11-19T12:10:09;99600.66;;;14.98;67.22
83488;BME280;73424;49.994;8.184;2023-11-19T12:12:33;99577.59;;;14.74;68.04
83488;BME280;73424;49.994;8.184;2023-11-19T12:20:04;99591.44;;;14.94;64.24
83488;BME280;73424;49.994;8.184;2023-11-19T12:22:44;99562.31;;;14.62;63.46
83488;BME280;73424;49.994;8.184;2023-11-19T12:25:10;99574.91;;;14.62;62.88
83488;BME280;73424;49.994;8.184;2023-11-19T12:27:39;99561.47;;;14.62;64.13
83488;BME280;73424;49.994;8.184;2023-11-19T12:30:05;99571.19;;;14.63;63.43
83488;BME280;73424;49.994;8.184;2023-11-19T12:32:38;99582.50;;;14.65;63.13
83488;BME280;73424;49.994;8.184;2023-11-19T12:35:04;99581.09;;;14.62;63.25
83488;BME280;73424;49.994;8.184;2023-11-19T12:37:29;99561.53;;;14.39;61.96
83488;BME280;73424;49.994;8.184;2023-11-19T12:39:57;99573.06;;;14.51;60.83
83488;BME280;73424;49.994;8.184;2023-11-19T12:42:35;99555.91;;;14.52;58.47
83488;BME280;73424;49.994;8.184;2023-11-19T12:45:00;99558.13;;;14.55;59.31
83488;BME280;73424;49.994;8.184;2023-11-19T12:47:25;99534.56;;;14.45;59.22
83488;BME280;73424;49.994;8.184;2023-11-19T12:49:57;99526.28;;;14.24;60.21
83488;BME280;73424;49.994;8.184;2023-11-19T12:52:23;99554.50;;;14.14;60.14
83488;BME280;73424;49.994;8.184;2023-11-19T12:54:49;99547.50;;;14.13;60.66
83488;BME280;73424;49.994;8.184;2023-11-19T12:57:14;99557.28;;;14.19;61.35
83488;BME280;73424;49.994;8.184;2023-11-19T12:59:40;99486.16;;;13.82;60.64
83488;BME280;73424;49.994;8.184;2023-11-19T13:02:05;99540.84;;;14.16;61.39
83488;BME280;73424;49.994;8.184;2023-11-19T13:04:31;99540.06;;;14.15;60.63
83488;BME280;73424;49.994;8.184;2023-11-19T13:06:58;99528.22;;;14.28;60.88
83488;BME280;73424;49.994;8.184;2023-11-19T13:09:24;99519.75;;;14.43;59.85
83488;BME280;73424;49.994;8.184;2023-11-19T13:11:50;99538.97;;;14.63;59.50
83488;BME280;73424;49.994;8.184;2023-11-19T13:14:15;99523.22;;;14.55;59.86
83488;BME280;73424;49.994;8.184;2023-11-19T13:16:42;99547.25;;;14.73;59.42
83488;BME280;73424;49.994;8.184;2023-11-19T13:19:15;99543.28;;;14.64;59.93
83488;BME280;73424;49.994;8.184;2023-11-19T13:21:41;99535.22;;;14.64;60.19
83488;BME280;73424;49.994;8.184;2023-11-19T13:24:07;99521.38;;;14.44;59.62
83488;BME280;73424;49.994;8.184;2023-11-19T13:26:32;99554.72;;;14.59;61.31
83488;BME280;73424;49.994;8.184;2023-11-19T13:28:58;99548.44;;;14.54;61.24